Time;durP1;ratioP1;P1;durP2;ratioP2;P2;SDS_P1;SDS_P2;PMS_P1;PMS_P2;Temp;Humidity;BMP_temperature;BMP_pressure;BME280_temperature;BME280_humidity;BME280_pressure;Samples;Min_cycle;Max_cycle;Signal;HPM_P1;HPM_P2
2023/07/25 00:01:05;;;;;;;8.50;3.65;;;24.90;97.80;;;;;;7399737;19;19924;-72
2023/07/25 00:03:31;;;;;;;8.52;3.85;;;24.90;97.90;;;;;;7399844;19;19911;-71
2023/07/25 00:05:57;;;;;;;9.75;3.97;;;24.90;98.00;;;;;;7399854;19;19974;-71
2023/07/25 00:08:23;;;;;;;9.30;3.85;;;24.90;98.00;;;;;;7397587;19;19922;-72
2023/07/25 00:10:49;;;;;;;12.20;4.07;;;24.90;98.10;;;;;;7400729;19;19918;-71
2023/07/25 00:13:15;;;;;;;11.00;4.82;;;24.80;98.40;;;;;;7398156;19;20453;-72
2023/07/25 00:15:40;;;;;;;7.60;3.47;;;24.80;98.20;;;;;;7399931;19;19968;-71
2023/07/25 00:18:06;;;;;;;9.75;3.50;;;24.80;98.20;;;;;;7399397;19;19910;-72
2023/07/25 00:20:32;;;;;;;8.75;4.35;;;24.80;98.30;;;;;;7402114;19;19915;-71
2023/07/25 00:22:58;;;;;;;6.82;4.53;;;24.70;98.40;;;;;;7400229;19;19986;-72
2023/07/25 00:25:24;;;;;;;8.23;3.58;;;24.70;98.50;;;;;;7377123;19;20346;-71
2023/07/25 00:27:49;;;;;;;8.90;3.85;;;24.70;98.60;;;;;;7401654;19;20377;-72
2023/07/25 00:30:15;;;;;;;8.57;4.18;;;24.60;98.60;;;;;;7400398;19;19918;-72
2023/07/25 00:32:41;;;;;;;9.57;4.28;;;24.60;98.80;;;;;;7399798;19;19922;-72
2023/07/25 00:35:07;;;;;;;11.70;3.80;;;24.70;98.90;;;;;;7397688;19;20013;-72
2023/07/25 00:37:33;;;;;;;12.85;4.07;;;24.60;99.00;;;;;;7399757;19;20793;-71
2023/07/25 00:39:58;;;;;;;10.13;4.15;;;24.60;99.10;;;;;;7401178;19;19936;-72
2023/07/25 00:42:25;;;;;;;10.43;4.60;;;24.60;99.10;;;;;;7398423;19;19918;-73
2023/07/25 00:44:51;;;;;;;9.55;4.22;;;24.60;99.10;;;;;;7399541;19;20694;-71
2023/07/25 00:47:18;;;;;;;8.52;4.30;;;24.50;99.20;;;;;;7401003;19;19954;-72
2023/07/25 00:49:45;;;;;;;11.75;4.63;;;24.50;99.20;;;;;;7398337;19;19914;-72
2023/07/25 00:52:12;;;;;;;10.63;4.32;;;24.50;99.20;;;;;;7398682;19;20366;-72
2023/07/25 00:54:39;;;;;;;10.45;3.70;;;24.50;99.30;;;;;;7399960;19;19915;-72
2023/07/25 00:57:07;;;;;;;8.25;4.03;;;24.50;99.30;;;;;;7398458;19;19918;-72
2023/07/25 00:59:33;;;;;;;8.07;4.15;;;24.50;99.40;;;;;;7398406;19;19915;-72
2023/07/25 01:02:00;;;;;;;11.88;4.05;;;24.50;99.50;;;;;;7399031;19;19933;-72
2023/07/25 01:04:25;;;;;;;;;;;24.50;99.60;;;;;;7400145;19;19922;-71
2023/07/25 01:06:52;;;;;;;10.18;4.10;;;24.50;99.70;;;;;;7399225;19;20758;-71
2023/07/25 01:09:38;;;;;;;9.55;3.88;;;24.40;99.80;;;;;;7396245;19;19919;-72
2023/07/25 01:12:06;;;;;;;10.70;4.60;;;24.40;99.80;;;;;;7396789;19;19977;-72
2023/07/25 01:14:32;;;;;;;8.63;4.07;;;24.40;99.90;;;;;;7399014;19;19914;-71
2023/07/25 01:17:20;;;;;;;8.35;4.13;;;24.40;99.90;;;;;;7399628;19;19972;-72
2023/07/25 01:19:48;;;;;;;10.07;4.40;;;24.40;99.90;;;;;;7406135;19;20338;-71
2023/07/25 01:22:14;;;;;;;8.98;4.10;;;24.40;99.90;;;;;;7403709;19;19910;-72
2023/07/25 01:24:46;;;;;;;9.43;4.15;;;24.40;99.90;;;;;;7405851;19;19910;-72
2023/07/25 01:27:12;;;;;;;7.63;3.92;;;24.40;99.90;;;;;;7403961;19;19922;-72
2023/07/25 01:29:38;;;;;;;12.85;4.10;;;24.40;99.90;;;;;;7406452;19;19926;-72
2023/07/25 01:32:05;;;;;;;10.50;4.03;;;24.40;99.90;;;;;;7372193;19;19987;-71
2023/07/25 01:34:30;;;;;;;10.20;4.00;;;24.40;99.90;;;;;;7405042;19;19936;-73
2023/07/25 01:36:56;;;;;;;8.23;4.25;;;24.40;99.90;;;;;;7402973;19;19914;-72
2023/07/25 01:39:22;;;;;;;14.48;5.00;;;24.30;99.90;;;;;;7401623;19;19942;-71
2023/07/25 01:41:48;;;;;;;9.32;3.92;;;24.30;99.90;;;;;;7405343;19;19946;-72
2023/07/25 01:44:13;;;;;;;10.45;4.05;;;24.30;99.90;;;;;;7403689;19;19921;-71
2023/07/25 01:46:41;;;;;;;13.13;4.68;;;24.30;99.90;;;;;;7406527;19;19930;-71
2023/07/25 01:49:10;;;;;;;10.40;4.53;;;24.30;99.90;;;;;;7404513;19;19935;-71
2023/07/25 01:51:37;;;;;;;9.40;4.15;;;24.20;99.90;;;;;;7405454;19;19986;-71
2023/07/25 01:54:03;;;;;;;11.70;4.75;;;24.30;99.90;;;;;;7404462;19;19932;-72
2023/07/25 01:56:28;;;;;;;10.63;4.40;;;24.20;99.90;;;;;;7404145;19;19923;-72
2023/07/25 01:58:54;;;;;;;13.60;5.43;;;24.20;99.90;;;;;;7402247;19;20324;-71
2023/07/25 02:01:20;;;;;;;11.80;5.00;;;24.20;99.90;;;;;;7400533;19;19918;-71
2023/07/25 02:03:46;;;;;;;9.13;4.47;;;24.20;99.90;;;;;;7374101;19;19926;-71
2023/07/25 02:06:11;;;;;;;11.32;5.15;;;24.20;99.90;;;;;;7403174;19;19911;-71
2023/07/25 02:08:37;;;;;;;12.20;4.70;;;24.20;99.90;;;;;;7404814;19;20235;-72
2023/07/25 02:11:03;;;;;;;10.32;4.53;;;24.20;99.90;;;;;;7401144;19;20335;-72
2023/07/25 02:13:29;;;;;;;19.08;5.28;;;24.20;99.90;;;;;;7405352;19;19922;-72
2023/07/25 02:15:54;;;;;;;8.98;4.40;;;24.10;99.90;;;;;;7403058;19;19919;-71
2023/07/25 02:18:21;;;;;;;11.65;4.50;;;24.10;99.90;;;;;;7403723;19;19922;-72
2023/07/25 02:20:47;;;;;;;11.30;5.10;;;24.10;99.90;;;;;;7403238;19;19990;-72
2023/07/25 02:23:13;;;;;;;11.27;4.78;;;24.10;99.90;;;;;;7402630;19;19955;-71
2023/07/25 02:25:39;;;;;;;12.13;4.47;;;24.10;99.90;;;;;;7402301;19;19933;-72
2023/07/25 02:28:04;;;;;;;14.27;5.72;;;24.10;99.90;;;;;;7401922;19;19921;-72
2023/07/25 02:30:30;;;;;;;12.85;4.97;;;24.10;99.90;;;;;;7403122;19;20031;-72
2023/07/25 02:32:56;;;;;;;14.10;4.28;;;24.00;99.90;;;;;;7381753;19;19937;-72
2023/07/25 02:35:25;;;;;;;14.95;5.57;;;24.10;99.90;;;;;;7401740;19;19939;-72
2023/07/25 02:37:50;;;;;;;10.00;4.28;;;24.10;99.90;;;;;;7403771;19;19923;-71
2023/07/25 02:40:16;;;;;;;12.30;4.32;;;24.00;99.90;;;;;;7400957;19;20760;-71
2023/07/25 02:42:42;;;;;;;10.73;4.47;;;24.10;99.90;;;;;;7404489;19;19941;-71
2023/07/25 02:45:08;;;;;;;8.90;4.28;;;24.00;99.90;;;;;;7401767;19;19918;-71
2023/07/25 02:47:34;;;;;;;16.50;4.43;;;24.10;99.90;;;;;;7401865;19;19911;-72
2023/07/25 02:50:00;;;;;;;13.43;5.10;;;24.10;99.90;;;;;;7403325;19;19921;-71
2023/07/25 02:52:25;;;;;;;9.93;4.28;;;24.10;99.90;;;;;;7397386;19;19941;-71
2023/07/25 02:54:51;;;;;;;13.30;4.20;;;24.00;99.90;;;;;;7403382;19;19917;-70
2023/07/25 02:57:17;;;;;;;15.23;4.93;;;24.10;99.90;;;;;;7397809;19;19918;-71
2023/07/25 02:59:43;;;;;;;15.45;4.80;;;24.10;99.90;;;;;;7404731;19;19934;-71
2023/07/25 03:02:10;;;;;;;13.57;4.38;;;24.10;99.90;;;;;;7398642;19;20333;-71
2023/07/25 03:04:36;;;;;;;14.70;4.63;;;24.00;99.90;;;;;;7400777;19;19918;-71
2023/07/25 03:07:02;;;;;;;14.48;4.57;;;24.00;99.90;;;;;;7402343;19;19929;-70
2023/07/25 03:09:28;;;;;;;11.23;4.85;;;24.00;99.90;;;;;;7401531;19;19926;-71
2023/07/25 03:11:54;;;;;;;14.10;4.90;;;24.10;99.90;;;;;;7400486;19;20786;-71
2023/07/25 03:14:20;;;;;;;10.20;4.43;;;24.10;99.90;;;;;;7399552;19;19982;-70
2023/07/25 03:16:46;;;;;;;15.63;4.32;;;24.20;99.90;;;;;;7399276;19;19943;-70
2023/07/25 03:19:11;;;;;;;12.20;4.13;;;24.10;99.90;;;;;;7400947;19;19914;-71
2023/07/25 03:21:37;;;;;;;10.80;4.47;;;24.20;99.90;;;;;;7401187;19;20003;-71
2023/07/25 03:24:03;;;;;;;10.63;4.18;;;24.30;99.90;;;;;;7399535;19;19919;-71
2023/07/25 03:26:29;;;;;;;12.20;4.60;;;24.30;99.90;;;;;;7404745;19;20279;-71
2023/07/25 03:28:55;;;;;;;11.10;3.80;;;24.30;99.90;;;;;;7399346;19;19956;-72
2023/07/25 03:31:20;;;;;;;9.73;3.05;;;24.30;99.90;;;;;;7399488;19;19915;-70
2023/07/25 03:33:46;;;;;;;11.07;3.85;;;24.30;99.90;;;;;;7401739;19;19926;-71
2023/07/25 03:36:12;;;;;;;6.75;3.10;;;24.30;99.90;;;;;;7399717;19;19926;-71
2023/07/25 03:38:38;;;;;;;10.45;3.33;;;24.20;99.90;;;;;;7403638;19;19978;-72
2023/07/25 03:41:04;;;;;;;9.57;2.95;;;24.20;99.90;;;;;;7398754;19;19938;-71
2023/07/25 03:43:29;;;;;;;13.77;2.90;;;24.20;99.90;;;;;;7401470;19;20059;-70
2023/07/25 03:45:55;;;;;;;8.52;2.88;;;24.20;99.90;;;;;;7398555;19;19918;-71
2023/07/25 03:48:21;;;;;;;9.90;3.10;;;24.20;99.90;;;;;;7399170;19;20352;-71
2023/07/25 03:50:46;;;;;;;6.93;2.38;;;24.20;99.90;;;;;;7402547;19;19943;-71
2023/07/25 03:53:12;;;;;;;8.10;2.67;;;24.20;99.90;;;;;;7366767;19;19915;-70
2023/07/25 03:55:38;;;;;;;8.18;2.63;;;24.20;99.90;;;;;;7400268;19;19926;-70
2023/07/25 03:58:04;;;;;;;10.43;2.20;;;24.10;99.90;;;;;;7397822;19;20342;-71
2023/07/25 04:00:29;;;;;;;7.63;2.22;;;24.10;99.90;;;;;;7399614;19;19939;-71
2023/07/25 04:02:55;;;;;;;11.68;2.45;;;24.10;99.90;;;;;;7400312;19;19915;-71
2023/07/25 04:05:21;;;;;;;5.80;1.98;;;24.10;99.90;;;;;;7400777;19;19910;-70
2023/07/25 04:07:47;;;;;;;7.90;2.00;;;24.20;99.90;;;;;;7395835;19;19911;-70
2023/07/25 04:10:12;;;;;;;6.22;2.55;;;24.10;99.90;;;;;;7397921;19;19944;-71
2023/07/25 04:12:38;;;;;;;8.25;2.20;;;24.10;99.90;;;;;;7401704;19;19941;-71
2023/07/25 04:15:04;;;;;;;6.32;2.10;;;24.20;99.90;;;;;;7398978;19;20250;-71
2023/07/25 04:17:31;;;;;;;9.13;2.25;;;24.10;99.90;;;;;;7398755;19;20277;-71
2023/07/25 04:19:57;;;;;;;7.20;2.13;;;24.10;99.90;;;;;;7400566;19;20769;-71
2023/07/25 04:22:23;;;;;;;6.85;2.03;;;24.20;99.90;;;;;;7397757;19;19934;-71
2023/07/25 04:24:49;;;;;;;5.38;1.95;;;24.20;99.90;;;;;;7400306;19;19906;-70
2023/07/25 04:27:14;;;;;;;6.70;1.83;;;24.10;99.90;;;;;;7399468;19;19919;-71
2023/07/25 04:29:40;;;;;;;8.50;2.28;;;24.10;99.90;;;;;;7399937;19;19915;-70
2023/07/25 04:32:06;;;;;;;5.47;1.70;;;24.20;99.90;;;;;;7399552;19;19910;-70
2023/07/25 04:34:32;;;;;;;7.07;1.67;;;24.20;99.90;;;;;;7399276;19;19946;-70
2023/07/25 04:36:58;;;;;;;7.35;1.60;;;24.20;99.90;;;;;;7398613;19;19914;-71
2023/07/25 04:39:24;;;;;;;8.68;1.90;;;24.20;99.90;;;;;;7399266;19;19915;-70
2023/07/25 04:41:49;;;;;;;6.13;2.97;;;24.30;99.90;;;;;;7401420;19;19919;-71
2023/07/25 04:44:15;;;;;;;7.07;2.20;;;24.30;99.00;;;;;;7399541;19;19914;-71
2023/07/25 04:46:41;;;;;;;5.82;2.08;;;24.30;96.60;;;;;;7398325;19;19930;-70
2023/07/25 04:49:11;;;;;;;6.00;2.05;;;24.20;94.10;;;;;;7399464;19;20871;-71
2023/07/25 04:51:37;;;;;;;5.25;1.90;;;24.20;91.80;;;;;;7400078;19;19914;-71
2023/07/25 04:54:03;;;;;;;6.65;2.00;;;24.10;87.50;;;;;;7399263;19;20335;-71
2023/07/25 04:56:29;;;;;;;5.43;1.92;;;24.10;82.20;;;;;;7398685;19;19937;-71
2023/07/25 04:58:55;;;;;;;4.32;1.70;;;24.00;76.80;;;;;;7398090;19;19982;-71
2023/07/25 05:01:20;;;;;;;8.13;2.42;;;23.90;74.50;;;;;;7397981;19;20290;-70
2023/07/25 05:03:46;;;;;;;4.93;1.52;;;23.90;72.60;;;;;;7398134;19;19917;-71
2023/07/25 05:06:12;;;;;;;3.83;1.48;;;23.80;68.60;;;;;;7396862;19;19942;-72
2023/07/25 05:08:38;;;;;;;5.28;1.65;;;23.70;68.10;;;;;;7397728;19;19927;-70
2023/07/25 05:11:04;;;;;;;5.55;1.83;;;23.60;68.20;;;;;;7394873;19;19925;-69
2023/07/25 05:13:30;;;;;;;4.65;1.42;;;23.50;67.30;;;;;;7398074;19;20235;-70
2023/07/25 05:15:55;;;;;;;5.20;1.50;;;23.40;66.10;;;;;;7396143;19;20471;-70
2023/07/25 05:18:21;;;;;;;7.60;1.60;;;23.40;66.50;;;;;;7399675;19;19910;-71
2023/07/25 05:20:47;;;;;;;5.03;1.42;;;23.30;65.70;;;;;;7398752;19;19928;-70
2023/07/25 05:23:13;;;;;;;4.78;1.20;;;23.20;65.00;;;;;;7398390;19;19930;-70
2023/07/25 05:25:39;;;;;;;4.70;1.70;;;23.20;65.70;;;;;;7398369;19;19952;-71
2023/07/25 05:28:05;;;;;;;5.35;1.55;;;23.20;67.20;;;;;;7398115;19;19952;-71
2023/07/25 05:30:31;;;;;;;5.30;1.20;;;23.20;66.00;;;;;;7397834;19;19914;-71
2023/07/25 05:32:57;;;;;;;4.22;1.27;;;23.20;65.50;;;;;;7399649;19;20339;-71
2023/07/25 05:35:23;;;;;;;5.03;1.50;;;23.20;66.20;;;;;;7395859;19;19914;-70
2023/07/25 05:37:49;;;;;;;6.15;1.45;;;23.20;66.20;;;;;;7398380;19;19921;-70
2023/07/25 05:40:15;;;;;;;4.68;1.85;;;23.20;66.30;;;;;;7394580;19;19915;-70
2023/07/25 05:42:40;;;;;;;7.20;1.50;;;23.30;66.70;;;;;;7396796;19;19933;-71
2023/07/25 05:45:07;;;;;;;6.35;1.60;;;23.30;66.70;;;;;;7396331;19;19907;-71
2023/07/25 05:47:32;;;;;;;4.28;1.67;;;23.40;65.30;;;;;;7394335;19;20280;-70
2023/07/25 05:49:58;;;;;;;3.97;1.52;;;23.40;65.50;;;;;;7395219;19;19910;-70
2023/07/25 05:52:24;;;;;;;5.75;1.63;;;23.40;65.30;;;;;;7363111;19;20501;-71
2023/07/25 05:54:51;;;;;;;6.70;1.75;;;23.40;64.40;;;;;;7396926;19;19923;-71
2023/07/25 05:57:17;;;;;;;5.78;1.60;;;23.40;64.20;;;;;;7393368;19;20252;-71
2023/07/25 05:59:43;;;;;;;5.88;1.50;;;23.50;64.10;;;;;;7395791;19;19918;-71
2023/07/25 06:02:10;;;;;;;4.40;1.45;;;23.50;63.70;;;;;;7393776;19;19922;-71
2023/07/25 06:04:35;;;;;;;4.72;1.48;;;23.50;63.20;;;;;;7398546;19;19918;-71
2023/07/25 06:07:01;;;;;;;3.60;1.30;;;23.60;63.80;;;;;;7403366;19;19982;-71
2023/07/25 06:09:27;;;;;;;4.82;1.77;;;23.60;64.00;;;;;;7400707;19;19919;-70
2023/07/25 06:11:55;;;;;;;4.57;1.42;;;23.70;63.00;;;;;;7405450;19;19943;-71
2023/07/25 06:14:21;;;;;;;5.05;1.10;;;23.70;62.30;;;;;;7379493;19;19921;-70
2023/07/25 06:16:47;;;;;;;3.85;1.48;;;23.80;60.70;;;;;;7403969;19;20386;-71
2023/07/25 06:19:13;;;;;;;3.47;1.40;;;23.90;60.30;;;;;;7402041;19;20318;-71
2023/07/25 06:21:38;;;;;;;7.43;1.65;;;23.90;58.40;;;;;;7404409;19;20239;-70
2023/07/25 06:24:04;;;;;;;5.63;1.35;;;24.00;58.20;;;;;;7401406;19;19991;-71
2023/07/25 06:26:30;;;;;;;3.92;1.33;;;24.10;57.10;;;;;;7403903;19;19918;-70
2023/07/25 06:28:56;;;;;;;4.03;1.33;;;24.10;56.50;;;;;;7401907;19;20308;-70
2023/07/25 06:31:22;;;;;;;4.28;0.98;;;24.20;56.20;;;;;;7401257;19;19942;-70
2023/07/25 06:33:48;;;;;;;3.53;1.20;;;24.20;55.90;;;;;;7404178;19;19918;-71
2023/07/25 06:36:13;;;;;;;3.45;1.00;;;24.30;55.60;;;;;;7400081;19;19914;-71
2023/07/25 06:38:39;;;;;;;5.88;1.10;;;24.30;55.20;;;;;;7404264;19;19919;-71
2023/07/25 06:41:05;;;;;;;4.32;1.00;;;24.50;54.70;;;;;;7400512;19;19922;-71
2023/07/25 06:43:31;;;;;;;5.75;2.05;;;24.50;54.50;;;;;;7401918;19;20409;-71
2023/07/25 06:45:56;;;;;;;7.35;1.70;;;24.60;54.30;;;;;;7401135;19;19922;-70
2023/07/25 06:48:22;;;;;;;6.20;1.42;;;24.60;54.50;;;;;;7400688;19;19942;-71
2023/07/25 06:50:48;;;;;;;4.38;1.17;;;24.50;54.70;;;;;;7401533;19;19911;-71
2023/07/25 06:53:14;;;;;;;3.28;1.30;;;24.50;54.70;;;;;;7401813;19;19918;-70
2023/07/25 06:55:40;;;;;;;4.50;1.20;;;24.40;55.00;;;;;;7404498;19;19930;-70
2023/07/25 06:58:10;;;;;;;5.97;0.95;;;24.30;55.20;;;;;;7402338;19;19914;-72
2023/07/25 07:00:37;;;;;;;3.83;1.20;;;24.20;55.50;;;;;;7404013;19;19918;-71
2023/07/25 07:03:04;;;;;;;;;;;24.20;56.20;;;;;;7405838;19;19922;-71
2023/07/25 07:05:30;;;;;;;3.78;1.30;;;24.30;56.20;;;;;;7401783;19;19914;-71
2023/07/25 07:07:56;;;;;;;5.10;1.30;;;24.30;56.10;;;;;;7402591;19;19950;-71
2023/07/25 07:10:22;;;;;;;5.38;1.38;;;24.30;56.30;;;;;;7400242;19;20207;-71
2023/07/25 07:12:48;;;;;;;4.75;1.02;;;24.30;56.40;;;;;;7403227;19;19989;-70
2023/07/25 07:15:15;;;;;;;5.28;1.50;;;24.30;56.40;;;;;;7400028;19;20445;-71
2023/07/25 07:17:42;;;;;;;5.00;1.50;;;24.40;56.60;;;;;;7361766;19;19915;-71
2023/07/25 07:20:09;;;;;;;5.07;1.98;;;24.30;55.70;;;;;;7399335;19;19923;-71
2023/07/25 07:22:34;;;;;;;5.55;1.65;;;24.40;55.80;;;;;;7383395;19;19922;-72
2023/07/25 07:25:00;;;;;;;6.70;1.48;;;24.50;56.40;;;;;;7401996;19;19925;-71
2023/07/25 07:27:26;;;;;;;5.30;1.35;;;24.60;55.70;;;;;;7369363;19;19922;-71
2023/07/25 07:29:52;;;;;;;6.10;1.30;;;24.60;55.50;;;;;;7401834;19;19942;-72
2023/07/25 07:32:18;;;;;;;4.82;1.20;;;24.70;55.50;;;;;;7393555;19;19929;-71
2023/07/25 07:34:44;;;;;;;5.68;1.30;;;24.80;55.60;;;;;;7394767;19;19926;-72
2023/07/25 07:37:10;;;;;;;3.20;1.00;;;25.00;55.70;;;;;;7398801;19;19907;-72
2023/07/25 07:39:38;;;;;;;3.60;1.20;;;25.00;55.50;;;;;;7393823;19;20331;-72
2023/07/25 07:42:04;;;;;;;7.55;1.50;;;25.00;55.30;;;;;;7399633;19;19914;-72
2023/07/25 07:44:30;;;;;;;8.48;2.10;;;25.20;55.00;;;;;;7394941;19;19910;-73
2023/07/25 07:46:56;;;;;;;5.18;1.40;;;25.30;55.00;;;;;;7390429;19;19963;-72
2023/07/25 07:49:21;;;;;;;5.10;1.20;;;25.30;53.70;;;;;;7366717;19;19945;-71
2023/07/25 07:51:47;;;;;;;5.18;1.42;;;25.40;53.80;;;;;;7390482;19;20228;-71
2023/07/25 07:54:13;;;;;;;4.60;1.30;;;25.30;53.50;;;;;;7396542;19;19927;-71
2023/07/25 07:56:39;;;;;;;4.85;1.23;;;25.40;53.30;;;;;;7392227;19;19921;-72
2023/07/25 07:59:07;;;;;;;4.45;1.30;;;25.30;53.20;;;;;;7398970;19;19919;-72
2023/07/25 08:01:32;;;;;;;3.13;1.02;;;25.30;53.20;;;;;;7400521;19;20448;-72
2023/07/25 08:03:59;;;;;;;5.57;1.15;;;25.40;53.10;;;;;;7399470;19;19923;-72
2023/07/25 08:06:25;;;;;;;3.67;1.30;;;25.40;52.70;;;;;;7400283;19;19911;-73
2023/07/25 08:08:52;;;;;;;3.53;1.17;;;25.50;52.40;;;;;;7398744;19;19939;-71
2023/07/25 08:11:18;;;;;;;5.30;1.30;;;25.60;53.00;;;;;;7397364;19;19915;-72
2023/07/25 08:13:43;;;;;;;4.63;1.20;;;25.60;52.60;;;;;;7388904;19;19918;-72
2023/07/25 08:16:09;;;;;;;6.82;1.90;;;25.60;52.30;;;;;;7388501;19;19935;-72
2023/07/25 08:18:35;;;;;;;6.10;1.70;;;25.80;53.20;;;;;;7392803;19;20854;-72
2023/07/25 08:21:01;;;;;;;4.95;1.50;;;25.70;52.90;;;;;;7395223;19;19918;-72
2023/07/25 08:23:28;;;;;;;3.53;1.40;;;25.80;52.60;;;;;;7391336;19;19919;-71
2023/07/25 08:25:57;;;;;;;5.40;2.25;;;25.80;51.80;;;;;;7394585;19;20403;-72
2023/07/25 08:28:23;;;;;;;5.45;1.20;;;25.90;51.60;;;;;;7400867;19;19930;-72
2023/07/25 08:30:59;;;;;;;4.25;1.13;;;25.80;51.60;;;;;;7397427;19;19918;-71
2023/07/25 08:33:25;;;;;;;4.65;1.25;;;25.90;51.90;;;;;;7398849;19;19921;-72
2023/07/25 08:35:53;;;;;;;4.55;1.30;;;26.00;51.90;;;;;;7401567;19;20347;-73
2023/07/25 08:38:18;;;;;;;3.55;1.30;;;26.10;51.50;;;;;;7396909;19;19914;-72
2023/07/25 08:40:48;;;;;;;7.78;1.50;;;26.10;51.60;;;;;;7392177;19;19918;-72
2023/07/25 08:43:17;;;;;;;8.75;1.73;;;26.20;51.00;;;;;;7383262;19;20006;-72
2023/07/25 08:45:45;;;;;;;8.15;2.10;;;26.20;51.10;;;;;;7382267;19;20446;-72
2023/07/25 08:48:12;;;;;;;5.22;1.30;;;27.10;50.50;;;;;;7392199;19;19914;-71
2023/07/25 08:50:40;;;;;;;7.07;1.92;;;28.30;48.20;;;;;;7390048;19;19914;-72
2023/07/25 08:53:11;;;;;;;4.82;2.00;;;29.30;46.60;;;;;;7399115;19;19906;-72
2023/07/25 08:55:37;;;;;;;3.72;1.63;;;30.00;45.50;;;;;;7396893;19;19902;-73
2023/07/25 08:58:04;;;;;;;6.88;1.70;;;30.20;45.30;;;;;;7393129;19;19918;-72
2023/07/25 09:00:30;;;;;;;7.15;3.58;;;30.70;44.60;;;;;;7392014;19;19930;-73
2023/07/25 09:02:56;;;;;;;7.65;1.75;;;31.20;43.50;;;;;;7392482;19;19917;-72
2023/07/25 09:05:22;;;;;;;;;;;30.60;42.80;;;;;;7391871;19;19923;-72
2023/07/25 09:07:48;;;;;;;12.60;2.75;;;30.70;43.30;;;;;;7386921;19;19918;-72
2023/07/25 09:10:14;;;;;;;;;;;31.50;42.10;;;;;;7399858;19;20381;-72
2023/07/25 09:12:40;;;;;;;4.68;2.13;;;31.30;41.90;;;;;;7396077;19;19926;-73
2023/07/25 09:15:07;;;;;;;5.88;2.17;;;31.60;41.40;;;;;;7394666;19;19971;-73
2023/07/25 09:17:32;;;;;;;6.72;2.13;;;32.20;41.40;;;;;;7391449;19;19911;-73
2023/07/25 09:19:59;;;;;;;5.43;3.47;;;32.30;40.20;;;;;;7388473;19;20268;-72
2023/07/25 09:22:29;;;;;;;4.03;1.90;;;32.00;40.30;;;;;;7382071;19;20334;-73
2023/07/25 09:24:56;;;;;;;5.00;2.38;;;30.90;40.60;;;;;;7384068;19;19986;-72
2023/07/25 09:27:22;;;;;;;5.70;2.35;;;30.30;41.20;;;;;;7390230;19;20624;-72
2023/07/25 09:29:52;;;;;;;6.72;2.25;;;30.90;40.50;;;;;;7394515;19;19919;-72
2023/07/25 09:32:28;;;;;;;7.28;2.22;;;31.60;39.50;;;;;;7383991;19;19919;-72
2023/07/25 09:34:59;;;;;;;6.72;2.20;;;33.10;38.10;;;;;;7387041;19;19922;-73
2023/07/25 09:37:25;;;;;;;5.60;2.58;;;34.40;36.60;;;;;;7395496;19;19922;-73
2023/07/25 09:39:51;;;;;;;4.97;2.63;;;34.80;34.60;;;;;;7400017;19;19949;-73
2023/07/25 09:42:21;;;;;;;6.68;2.85;;;33.90;37.20;;;;;;7400346;19;19919;-72
2023/07/25 09:44:48;;;;;;;5.07;2.97;;;33.00;37.30;;;;;;7391637;19;19926;-72
2023/07/25 09:47:24;;;;;;;4.75;2.30;;;33.20;37.90;;;;;;7399219;19;20442;-72
2023/07/25 09:49:52;;;;;;;7.40;3.22;;;33.10;37.80;;;;;;7404898;19;19915;-73
2023/07/25 09:52:18;;;;;;;5.35;2.58;;;32.80;36.40;;;;;;7394327;19;20032;-73
2023/07/25 09:54:44;;;;;;;7.70;2.65;;;32.40;36.50;;;;;;7397914;19;19938;-73
2023/07/25 09:57:10;;;;;;;5.20;2.80;;;32.50;35.90;;;;;;7365177;19;19911;-73
2023/07/25 09:59:36;;;;;;;5.70;2.80;;;33.10;35.20;;;;;;7400680;19;20326;-73
2023/07/25 10:02:06;;;;;;;4.93;2.17;;;33.30;34.70;;;;;;7386934;19;19930;-73
2023/07/25 10:04:36;;;;;;;6.28;2.58;;;31.90;34.60;;;;;;7398313;19;19921;-72
2023/07/25 10:07:03;;;;;;;4.43;2.28;;;31.70;34.90;;;;;;7402203;19;20006;-72
2023/07/25 10:09:30;;;;;;;8.77;2.72;;;31.60;35.20;;;;;;7389804;19;19970;-72
2023/07/25 10:11:56;;;;;;;8.38;2.90;;;32.70;35.30;;;;;;7399185;19;19945;-72
2023/07/25 10:14:22;;;;;;;6.13;2.97;;;32.50;36.50;;;;;;7399362;19;19927;-72
2023/07/25 10:16:49;;;;;;;8.65;2.95;;;32.20;39.50;;;;;;7398170;19;19926;-72
2023/07/25 10:19:15;;;;;;;8.10;4.78;;;32.00;40.60;;;;;;7393810;19;20256;-72
2023/07/25 10:21:51;;;;;;;8.45;2.55;;;32.60;39.70;;;;;;7400112;19;19919;-73
2023/07/25 10:24:19;;;;;;;9.23;3.33;;;31.70;40.10;;;;;;7386471;19;20355;-72
2023/07/25 10:26:58;;;;;;;7.40;2.50;;;31.70;40.40;;;;;;7395817;19;19918;-72
2023/07/25 10:29:45;;;;;;;8.07;3.05;;;31.60;40.90;;;;;;7390092;19;19925;-73
2023/07/25 10:32:16;;;;;;;10.55;2.75;;;32.30;39.90;;;;;;7392777;19;19918;-72
2023/07/25 10:35:00;;;;;;;4.55;2.30;;;32.50;39.60;;;;;;7400400;19;19906;-72
2023/07/25 10:37:27;;;;;;;8.68;2.58;;;31.90;39.70;;;;;;7366614;19;19939;-72
2023/07/25 10:40:11;;;;;;;7.88;2.88;;;32.60;39.70;;;;;;7399578;19;19921;-71
2023/07/25 10:42:58;;;;;;;8.98;2.75;;;33.20;38.50;;;;;;7394525;19;19994;-71
2023/07/25 10:45:27;;;;;;;9.05;3.05;;;33.30;37.40;;;;;;7388764;19;20871;-72
2023/07/25 10:48:01;;;;;;;6.88;2.80;;;33.70;36.90;;;;;;7398108;19;19914;-72
2023/07/25 10:50:47;;;;;;;12.23;3.13;;;34.00;35.80;;;;;;7362472;19;19918;-71
2023/07/25 10:53:15;;;;;;;5.93;2.38;;;33.80;35.80;;;;;;7387890;19;19915;-73
2023/07/25 10:56:03;;;;;;;6.45;3.08;;;32.00;38.60;;;;;;7398272;19;20335;-74
2023/07/25 10:58:33;;;;;;;6.82;2.63;;;30.80;40.30;;;;;;7394207;19;19926;-73
2023/07/25 11:01:00;;;;;;;4.63;2.20;;;30.50;42.40;;;;;;7387915;19;20644;-73
2023/07/25 11:03:31;;;;;;;7.43;3.78;;;30.60;40.60;;;;;;7393739;19;19917;-71
2023/07/25 11:06:06;;;;;;;4.95;2.50;;;31.10;40.00;;;;;;7397478;19;19924;-71
2023/07/25 11:08:40;;;;;;;6.95;2.50;;;31.40;39.70;;;;;;7386083;19;19927;-72
2023/07/25 11:11:11;;;;;;;7.00;2.45;;;31.30;40.00;;;;;;7383421;19;19918;-72
2023/07/25 11:13:39;;;;;;;10.23;2.90;;;31.10;40.50;;;;;;7383670;19;19910;-72
2023/07/25 11:16:09;;;;;;;8.13;3.30;;;31.00;40.00;;;;;;7397833;19;19962;-72
2023/07/25 11:18:47;;;;;;;10.50;2.92;;;30.80;40.50;;;;;;7389419;19;19918;-71
2023/07/25 11:21:13;;;;;;;7.20;2.50;;;31.20;40.40;;;;;;7392638;19;19922;-71
2023/07/25 11:23:38;;;;;;;;;;;30.10;39.60;;;;;;7391225;19;19927;-72
2023/07/25 11:26:08;;;;;;;8.23;2.72;;;30.10;40.20;;;;;;7401396;19;20518;-72
2023/07/25 11:28:37;;;;;;;10.90;3.20;;;30.20;39.40;;;;;;7396088;19;19922;-72
2023/07/25 11:31:03;;;;;;;7.78;3.05;;;30.70;39.40;;;;;;7396358;19;19946;-71
2023/07/25 11:33:38;;;;;;;;;;;31.30;38.60;;;;;;7390797;19;19974;-72
2023/07/25 11:36:05;;;;;;;8.57;3.17;;;31.60;38.20;;;;;;7392317;19;19923;-73
2023/07/25 11:38:35;;;;;;;10.10;3.00;;;31.20;38.20;;;;;;7388742;19;19918;-71
2023/07/25 11:41:01;;;;;;;7.68;4.40;;;31.40;38.80;;;;;;7394555;19;20290;-71
2023/07/25 11:43:28;;;;;;;;;;;31.00;38.40;;;;;;7387184;19;19930;-71
2023/07/25 11:45:54;;;;;;;8.55;2.53;;;30.00;38.30;;;;;;7394075;19;20011;-71
2023/07/25 11:48:21;;;;;;;7.57;2.10;;;30.40;38.90;;;;;;7385584;19;20335;-72
2023/07/25 11:50:49;;;;;;;11.13;3.55;;;30.30;38.30;;;;;;7395615;19;20248;-71
2023/07/25 11:53:20;;;;;;;8.63;4.78;;;30.70;37.60;;;;;;7392032;19;20275;-71
2023/07/25 11:55:47;;;;;;;8.15;3.05;;;30.90;37.30;;;;;;7397325;19;19911;-70
2023/07/25 11:58:20;;;;;;;9.13;3.30;;;31.60;37.10;;;;;;7394437;19;19914;-72
2023/07/25 12:00:51;;;;;;;10.18;2.97;;;31.90;36.40;;;;;;7395179;19;19918;-72
2023/07/25 12:03:22;;;;;;;8.95;2.70;;;31.80;35.60;;;;;;7391784;19;19915;-71
2023/07/25 12:05:56;;;;;;;11.50;3.38;;;30.90;36.90;;;;;;7390862;19;19915;-72
2023/07/25 12:08:33;;;;;;;8.65;2.58;;;32.40;35.10;;;;;;7399590;19;19935;-71
2023/07/25 12:11:03;;;;;;;10.73;3.28;;;32.40;34.50;;;;;;7399372;19;19914;-70
2023/07/25 12:13:29;;;;;;;7.75;2.55;;;31.70;35.70;;;;;;7398391;19;19998;-71
2023/07/25 12:15:57;;;;;;;8.82;2.97;;;30.60;36.40;;;;;;7400022;19;19915;-71
2023/07/25 12:18:31;;;;;;;11.23;3.13;;;31.00;36.70;;;;;;7398174;19;20002;-72
2023/07/25 12:21:03;;;;;;;8.23;3.30;;;32.50;35.40;;;;;;7401359;19;19910;-72
2023/07/25 12:23:39;;;;;;;6.15;2.80;;;31.10;35.10;;;;;;7400129;19;19923;-71
2023/07/25 12:26:06;;;;;;;9.60;3.35;;;32.20;34.30;;;;;;7397924;19;19918;-72
2023/07/25 12:28:42;;;;;;;5.88;2.38;;;31.60;34.80;;;;;;7401298;19;19923;-72
2023/07/25 12:31:08;;;;;;;9.30;2.92;;;32.00;34.30;;;;;;7398807;19;20347;-72
2023/07/25 12:33:34;;;;;;;;;;;31.90;34.70;;;;;;7402986;19;19933;-70
2023/07/25 12:36:00;;;;;;;7.70;2.95;;;30.60;35.40;;;;;;7401209;19;19918;-71
2023/07/25 12:38:28;;;;;;;8.20;3.85;;;30.50;35.90;;;;;;7400312;19;20259;-71
2023/07/25 12:40:53;;;;;;;8.73;2.88;;;31.30;35.20;;;;;;7401219;19;19938;-72
2023/07/25 12:43:21;;;;;;;;;;;31.60;33.80;;;;;;7401498;19;20033;-71
2023/07/25 12:45:47;;;;;;;10.40;3.78;;;31.50;32.50;;;;;;7401332;19;20228;-71
2023/07/25 12:48:12;;;;;;;;;;;31.60;32.40;;;;;;7402333;19;20371;-71